createdAt,value
2017-04-19T00:08:50.679Z,99.30
2017-04-19T00:28:51.123Z,85.18
2017-04-19T00:48:51.474Z,75.23
2017-04-19T01:08:51.896Z,89.49
2017-04-19T01:28:52.420Z,90.62
2017-04-19T01:48:52.835Z,78.92
2017-04-19T02:08:53.237Z,83.59
2017-04-19T02:28:53.677Z,86.89
2017-04-19T02:48:54.058Z,76.43
2017-04-19T03:08:54.591Z,61.45
2017-04-19T03:28:55.025Z,63.04
2017-04-19T04:03:12.502Z,94.05
2017-04-19T04:23:12.013Z,99.96
2017-04-19T04:43:12.592Z,59.57
2017-04-19T05:03:13.144Z,38.95
2017-04-19T05:38:13.983Z,51.30
2017-04-19T05:58:14.505Z,0.00
2017-04-19T06:18:14.997Z,0.00
2017-04-19T06:43:15.649Z,0.00
2017-04-19T07:03:16.193Z,0.00
2017-04-19T07:23:16.835Z,0.00
2017-04-19T07:43:17.281Z,7.51
2017-04-19T08:03:17.920Z,22.69
2017-04-19T08:23:18.288Z,69.26
2017-04-19T08:43:18.942Z,30.00
2017-04-19T09:03:19.436Z,41.14
2017-04-19T09:23:19.939Z,75.30
2017-04-19T09:43:20.341Z,51.01
2017-04-19T10:03:20.966Z,49.29
2017-04-19T10:23:21.408Z,90.94
2017-04-19T10:43:21.957Z,93.80
2017-04-19T11:03:22.355Z,89.99
2017-04-19T11:38:23.400Z,90.29
2017-04-19T11:58:23.815Z,99.92
2017-04-19T12:18:24.299Z,98.08
2017-04-19T12:38:24.697Z,99.53
2017-04-19T12:58:25.343Z,92.11
2017-04-19T13:18:25.675Z,62.02
2017-04-19T13:38:26.330Z,99.18
2017-04-19T13:58:26.789Z,76.66
2017-04-19T14:18:27.329Z,34.51
2017-04-19T14:38:27.892Z,100.00
2017-04-19T14:58:28.369Z,55.87
2017-04-19T15:18:28.926Z,83.53
2017-04-19T15:38:29.471Z,59.64
2017-04-19T15:58:29.895Z,74.43
2017-04-19T16:18:30.305Z,100.00
2017-04-19T16:38:30.732Z,96.33
2017-04-19T16:58:31.281Z,99.57
2017-04-19T17:18:31.902Z,73.83
2017-04-19T17:38:32.421Z,3.05
2017-04-19T17:58:32.950Z,0.91
2017-04-19T18:28:33.732Z,61.00
2017-04-19T18:48:34.516Z,84.25
2017-04-19T19:09:19.158Z,51.27
2017-04-19T19:29:19.723Z,89.76
2017-04-19T19:49:20.125Z,7.76
2017-04-19T20:09:20.583Z,60.20
2017-04-19T20:29:21.067Z,76.74
2017-04-19T20:49:21.521Z,73.18
2017-04-19T21:09:21.911Z,92.05
2017-04-19T21:29:22.429Z,96.17
2017-04-19T21:49:22.918Z,94.37
2017-04-19T22:09:23.389Z,87.25
2017-04-19T22:29:23.894Z,63.34
2017-04-19T22:49:24.477Z,78.74
2017-04-19T23:09:24.896Z,87.11
2017-04-19T23:29:25.090Z,91.83
2017-04-19T23:49:25.628Z,82.96
